Time;durP1;ratioP1;P1;durP2;ratioP2;P2;SDS_P1;SDS_P2;PMS_P1;PMS_P2;Temp;Humidity;BMP_temperature;BMP_pressure;BME280_temperature;BME280_humidity;BME280_pressure;Samples;Min_cycle;Max_cycle;Signal;HPM_P1;HPM_P2
2022/07/31 00:00:39;;;;;;;12.77;6.43;;;14.30;99.90;;;;;;4823856;29;20109;-53
2022/07/31 00:03:06;;;;;;;16.75;7.30;;;14.30;99.90;;;;;;4824009;29;20478;-50
2022/07/31 00:05:32;;;;;;;16.15;5.63;;;14.30;99.90;;;;;;4825501;29;20370;-50
2022/07/31 00:07:58;;;;;;;30.02;7.10;;;14.40;99.90;;;;;;4823703;29;20445;-51
2022/07/31 00:10:24;;;;;;;14.80;6.75;;;14.40;99.90;;;;;;4825301;29;20042;-50
2022/07/31 00:12:50;;;;;;;12.93;6.35;;;14.40;99.90;;;;;;4824912;29;20154;-51
2022/07/31 00:15:16;;;;;;;19.40;6.80;;;14.40;99.90;;;;;;4825163;29;20437;-50
2022/07/31 00:17:43;;;;;;;17.00;6.15;;;14.40;99.90;;;;;;4824956;29;20114;-51
2022/07/31 00:20:14;;;;;;;14.48;6.25;;;14.40;99.90;;;;;;4824927;29;20038;-49
2022/07/31 00:22:43;;;;;;;11.88;5.75;;;14.40;99.90;;;;;;4824955;29;20041;-52
2022/07/31 00:25:10;;;;;;;16.58;5.82;;;14.40;99.90;;;;;;4824648;29;20417;-50
2022/07/31 00:27:36;;;;;;;19.35;6.95;;;14.30;99.90;;;;;;4824898;29;20023;-50
2022/07/31 00:30:04;;;;;;;16.40;6.95;;;14.20;99.90;;;;;;4824074;29;20455;-50
2022/07/31 00:32:29;;;;;;;22.88;7.45;;;14.20;99.90;;;;;;4824883;29;20072;-51
2022/07/31 00:34:55;;;;;;;20.65;6.13;;;14.20;99.90;;;;;;4824495;29;20050;-51
2022/07/31 00:37:21;;;;;;;17.75;7.13;;;14.10;99.90;;;;;;4824763;29;20113;-51
2022/07/31 00:39:47;;;;;;;26.48;6.95;;;14.10;99.90;;;;;;4824679;29;20029;-50
2022/07/31 00:42:19;;;;;;;13.07;5.75;;;14.10;99.90;;;;;;4824908;29;20038;-50
2022/07/31 00:44:45;;;;;;;18.08;7.85;;;14.10;99.90;;;;;;4824544;29;20396;-50
2022/07/31 00:47:11;;;;;;;14.82;6.28;;;14.10;99.90;;;;;;4824181;29;20045;-50
2022/07/31 00:49:36;;;;;;;11.27;6.20;;;14.10;99.90;;;;;;4824277;29;20039;-50
2022/07/31 00:52:02;;;;;;;15.55;6.80;;;14.10;99.90;;;;;;4823023;29;20053;-49
2022/07/31 00:54:28;;;;;;;12.55;6.15;;;14.10;99.90;;;;;;4823135;29;20039;-50
2022/07/31 00:56:54;;;;;;;12.27;6.10;;;14.10;99.90;;;;;;4806412;29;20043;-50
2022/07/31 00:59:19;;;;;;;11.07;5.97;;;14.20;99.90;;;;;;4822611;29;20411;-50
2022/07/31 01:01:46;;;;;;;9.32;5.85;;;14.20;99.90;;;;;;4824145;29;20372;-52
2022/07/31 01:04:14;;;;;;;15.13;6.32;;;14.20;99.90;;;;;;4824220;29;20527;-50
2022/07/31 01:06:39;;;;;;;12.25;5.93;;;14.20;99.90;;;;;;4824020;29;20038;-50
2022/07/31 01:09:05;;;;;;;20.35;5.57;;;14.20;99.90;;;;;;4824270;29;20126;-50
2022/07/31 01:11:51;;;;;;;12.82;5.95;;;14.20;99.90;;;;;;4824153;29;20057;-50
2022/07/31 01:14:20;;;;;;;14.98;6.15;;;14.20;99.90;;;;;;4824432;29;20062;-50
2022/07/31 01:16:49;;;;;;;9.32;6.30;;;14.20;99.90;;;;;;4823928;29;20038;-52
2022/07/31 01:19:21;;;;;;;20.45;5.78;;;14.10;99.90;;;;;;4824398;29;20031;-50
2022/07/31 01:22:13;;;;;;;11.32;6.20;;;14.10;99.90;;;;;;4822731;29;20027;-50
2022/07/31 01:24:38;;;;;;;9.27;5.40;;;14.10;99.90;;;;;;4823893;29;20138;-50
2022/07/31 01:27:19;;;;;;;12.45;5.72;;;14.10;99.90;;;;;;4822821;29;20503;-52
2022/07/31 01:29:52;;;;;;;18.55;5.78;;;14.10;99.90;;;;;;4823797;29;20038;-51
2022/07/31 01:32:27;;;;;;;14.38;5.32;;;14.10;99.90;;;;;;4824069;29;20034;-51
2022/07/31 01:35:06;;;;;;;6.93;5.50;;;14.10;99.90;;;;;;4823750;29;20026;-50
2022/07/31 01:37:46;;;;;;;9.20;6.03;;;14.10;99.90;;;;;;4823637;29;20475;-50
2022/07/31 01:40:16;;;;;;;16.70;6.13;;;14.10;99.90;;;;;;4823845;29;20038;-51
2022/07/31 01:42:51;;;;;;;12.57;6.13;;;14.20;99.90;;;;;;4822590;29;20026;-50
2022/07/31 01:45:19;;;;;;;11.25;5.80;;;14.10;99.90;;;;;;4823835;29;20035;-51
2022/07/31 01:47:47;;;;;;;10.20;6.22;;;14.00;99.90;;;;;;4823884;29;20095;-49
2022/07/31 01:50:18;;;;;;;10.88;6.03;;;14.00;99.90;;;;;;4822382;29;20043;-50
2022/07/31 01:52:44;;;;;;;7.50;5.55;;;13.90;99.90;;;;;;4823585;29;20033;-53
2022/07/31 01:55:12;;;;;;;8.10;6.45;;;13.80;99.90;;;;;;4823333;29;20042;-50
2022/07/31 01:57:40;;;;;;;10.77;5.97;;;13.80;99.90;;;;;;4823132;29;20022;-50
2022/07/31 02:00:08;;;;;;;7.20;6.13;;;13.80;99.90;;;;;;4823227;29;20486;-49
2022/07/31 02:02:35;;;;;;;9.80;6.53;;;13.70;99.90;;;;;;4823556;29;20034;-50
2022/07/31 02:05:06;;;;;;;7.93;6.03;;;13.80;99.90;;;;;;4823383;29;20109;-52
2022/07/31 02:07:36;;;;;;;13.10;6.47;;;13.70;99.90;;;;;;4823462;29;20034;-50
2022/07/31 02:10:04;;;;;;;6.85;6.15;;;13.70;99.90;;;;;;4823074;29;20030;-50
2022/07/31 02:12:31;;;;;;;6.25;5.65;;;13.70;99.90;;;;;;4823088;29;20106;-50
2022/07/31 02:14:57;;;;;;;11.02;6.50;;;13.60;99.90;;;;;;4823208;29;20097;-50
2022/07/31 02:17:25;;;;;;;7.85;6.43;;;13.60;99.90;;;;;;4823125;29;20030;-51
2022/07/31 02:19:51;;;;;;;6.85;6.15;;;13.60;99.90;;;;;;4823152;29;20471;-50
2022/07/31 02:22:17;;;;;;;10.25;6.88;;;13.60;99.90;;;;;;4823273;29;20034;-49
2022/07/31 02:24:43;;;;;;;6.93;6.30;;;13.60;99.90;;;;;;4823521;29;20060;-53
2022/07/31 02:27:11;;;;;;;9.40;6.65;;;13.60;99.90;;;;;;4823316;29;20034;-50
2022/07/31 02:29:38;;;;;;;15.82;6.90;;;13.50;99.90;;;;;;4823341;29;20101;-50
2022/07/31 02:32:05;;;;;;;8.85;6.53;;;13.50;99.90;;;;;;4823196;29;20041;-49
2022/07/31 02:34:32;;;;;;;7.30;6.60;;;13.50;99.90;;;;;;4822789;29;20045;-51
2022/07/31 02:37:00;;;;;;;6.70;6.10;;;13.60;99.90;;;;;;4822583;29;20034;-51
2022/07/31 02:39:27;;;;;;;10.82;7.22;;;13.50;99.90;;;;;;4823305;29;20030;-50
2022/07/31 02:41:54;;;;;;;11.32;5.93;;;13.60;99.90;;;;;;4821711;29;20026;-52
2022/07/31 02:44:20;;;;;;;13.93;6.78;;;13.50;99.90;;;;;;4822864;29;20030;-49
2022/07/31 02:46:47;;;;;;;7.70;6.72;;;13.50;99.90;;;;;;4822590;29;20406;-49
2022/07/31 02:49:13;;;;;;;8.25;6.55;;;13.40;99.90;;;;;;4823079;29;20055;-51
2022/07/31 02:51:40;;;;;;;10.95;6.32;;;13.40;99.90;;;;;;4823013;29;20188;-52
2022/07/31 02:54:06;;;;;;;11.38;6.18;;;13.50;99.90;;;;;;4822902;29;20050;-50
2022/07/31 02:56:33;;;;;;;6.43;5.63;;;13.50;99.90;;;;;;4821582;29;20030;-50
2022/07/31 02:58:59;;;;;;;10.30;7.22;;;13.50;99.90;;;;;;4822769;29;20053;-49
2022/07/31 03:01:26;;;;;;;18.02;8.18;;;13.40;99.90;;;;;;4822681;29;20402;-49
2022/07/31 03:03:51;;;;;;;7.22;6.53;;;13.40;99.90;;;;;;4822450;29;20113;-49
2022/07/31 03:06:17;;;;;;;10.20;6.65;;;13.40;99.90;;;;;;4822700;29;20117;-50
2022/07/31 03:08:43;;;;;;;7.22;6.55;;;13.40;99.90;;;;;;4821544;29;20140;-52
2022/07/31 03:11:10;;;;;;;7.28;5.97;;;13.40;99.90;;;;;;4828509;29;20720;-50
2022/07/31 03:13:37;;;;;;;8.88;6.15;;;13.30;99.90;;;;;;4828567;29;20073;-49
2022/07/31 03:16:05;;;;;;;7.68;6.45;;;13.30;99.90;;;;;;4828119;29;20034;-49
2022/07/31 03:18:32;;;;;;;11.55;6.72;;;13.30;99.90;;;;;;4828510;29;20109;-50
2022/07/31 03:20:57;;;;;;;8.00;6.65;;;13.30;99.90;;;;;;4827910;29;20039;-50
2022/07/31 03:23:26;;;;;;;8.85;6.82;;;13.40;99.90;;;;;;4828478;29;20374;-50
2022/07/31 03:25:53;;;;;;;7.78;7.03;;;13.50;99.90;;;;;;4827903;29;20117;-50
2022/07/31 03:28:19;;;;;;;6.72;6.03;;;13.40;99.90;;;;;;4828364;29;20046;-51
2022/07/31 03:30:51;;;;;;;11.65;6.85;;;13.50;99.90;;;;;;4828415;29;20034;-52
2022/07/31 03:33:17;;;;;;;7.93;6.45;;;13.50;99.90;;;;;;4828089;29;20356;-51
2022/07/31 03:35:42;;;;;;;6.22;5.63;;;13.50;99.90;;;;;;4828192;29;20125;-52
2022/07/31 03:38:08;;;;;;;6.88;6.18;;;13.50;99.90;;;;;;4826997;29;20064;-51
2022/07/31 03:40:34;;;;;;;9.07;6.85;;;13.50;99.90;;;;;;4828168;29;20026;-52
2022/07/31 03:43:02;;;;;;;7.50;6.75;;;13.50;99.90;;;;;;4828106;29;20391;-49
2022/07/31 03:45:30;;;;;;;6.97;6.25;;;13.50;99.90;;;;;;4828184;29;20515;-50
2022/07/31 03:47:56;;;;;;;7.32;6.18;;;13.40;99.90;;;;;;4828241;29;20682;-52
2022/07/31 03:50:22;;;;;;;8.65;6.88;;;13.40;99.90;;;;;;4828321;29;20060;-50
2022/07/31 03:52:49;;;;;;;7.97;6.57;;;13.50;99.90;;;;;;4828099;29;20087;-50
2022/07/31 03:55:15;;;;;;;9.77;5.93;;;13.50;99.90;;;;;;4828008;29;20075;-51
2022/07/31 03:57:41;;;;;;;8.65;5.72;;;13.50;99.90;;;;;;4826868;29;20034;-52
2022/07/31 04:00:09;;;;;;;10.48;6.05;;;13.50;99.90;;;;;;4828152;29;20034;-51
2022/07/31 04:02:35;;;;;;;7.68;6.18;;;13.50;99.90;;;;;;4826664;29;20450;-50
2022/07/31 04:05:00;;;;;;;5.93;5.03;;;13.50;99.90;;;;;;4828141;29;20041;-50
2022/07/31 04:07:26;;;;;;;5.72;5.22;;;13.50;99.90;;;;;;4827959;29;20106;-49
2022/07/31 04:09:52;;;;;;;12.02;6.35;;;13.50;99.90;;;;;;4828131;29;20018;-52
2022/07/31 04:12:18;;;;;;;7.68;5.90;;;13.50;99.90;;;;;;4827276;29;20046;-51
2022/07/31 04:14:44;;;;;;;12.23;6.15;;;13.50;99.90;;;;;;4827797;29;20034;-53
2022/07/31 04:17:09;;;;;;;18.88;6.70;;;13.50;99.90;;;;;;4827006;29;20062;-52
2022/07/31 04:19:35;;;;;;;9.27;6.18;;;13.60;99.90;;;;;;4827913;29;20420;-49
2022/07/31 04:22:01;;;;;;;8.45;5.70;;;13.60;99.90;;;;;;4824287;29;20440;-49
2022/07/31 04:24:27;;;;;;;11.38;6.18;;;13.60;99.90;;;;;;4825019;29;20034;-49
2022/07/31 04:26:56;;;;;;;6.93;6.32;;;13.70;99.90;;;;;;4824743;29;20037;-51
2022/07/31 04:29:23;;;;;;;7.82;6.43;;;13.70;99.90;;;;;;4825033;29;20053;-50
2022/07/31 04:31:49;;;;;;;6.55;5.95;;;13.80;99.90;;;;;;4823341;29;20035;-50
2022/07/31 04:34:15;;;;;;;9.40;5.88;;;13.90;99.90;;;;;;4824705;29;20026;-50
2022/07/31 04:36:40;;;;;;;8.00;5.55;;;14.00;99.90;;;;;;4824657;29;20374;-50
2022/07/31 04:39:06;;;;;;;10.63;6.68;;;14.00;99.90;;;;;;4824217;29;20038;-52
2022/07/31 04:41:32;;;;;;;6.50;5.90;;;14.10;99.90;;;;;;4824948;29;20022;-51
2022/07/31 04:43:58;;;;;;;8.48;5.80;;;14.10;99.90;;;;;;4823126;29;20023;-50
2022/07/31 04:46:25;;;;;;;7.40;6.53;;;14.20;99.90;;;;;;4824650;29;20359;-50
2022/07/31 04:48:50;;;;;;;5.97;5.35;;;14.20;99.90;;;;;;4823252;29;20513;-51
2022/07/31 04:51:21;;;;;;;5.75;5.25;;;14.20;99.90;;;;;;4824219;29;20076;-53
2022/07/31 04:53:48;;;;;;;7.43;6.13;;;14.30;99.90;;;;;;4824497;29;20166;-51
2022/07/31 04:59:02;;;;;;;6.93;6.30;;;14.30;99.90;;;;;;4824370;29;20064;-54
2022/07/31 05:01:28;;;;;;;8.88;6.10;;;14.30;99.90;;;;;;4824701;29;20058;-51
2022/07/31 05:03:53;;;;;;;6.13;5.63;;;14.40;99.90;;;;;;4823886;29;20068;-50
2022/07/31 05:06:19;;;;;;;6.15;5.55;;;14.50;99.90;;;;;;4824388;29;20091;-50
2022/07/31 05:08:45;;;;;;;6.32;5.72;;;14.60;99.90;;;;;;4822898;29;20678;-52
2022/07/31 05:11:22;;;;;;;6.63;5.90;;;14.60;99.90;;;;;;4824298;29;20117;-51
2022/07/31 05:13:53;;;;;;;8.82;5.43;;;14.70;99.90;;;;;;4823956;29;20486;-51
2022/07/31 05:16:20;;;;;;;6.47;5.35;;;14.80;99.90;;;;;;4810513;29;20436;-50
2022/07/31 05:18:46;;;;;;;6.53;4.63;;;14.90;99.90;;;;;;4822485;29;20487;-51
2022/07/31 05:21:13;;;;;;;7.88;5.53;;;14.90;99.90;;;;;;4824391;29;20062;-51
2022/07/31 05:23:42;;;;;;;8.50;5.63;;;15.10;99.90;;;;;;4823982;29;20033;-51
2022/07/31 05:26:09;;;;;;;5.45;5.00;;;15.10;99.90;;;;;;4824023;29;20042;-50
2022/07/31 05:28:36;;;;;;;5.97;5.00;;;15.30;99.90;;;;;;4823906;29;20038;-50
2022/07/31 05:31:02;;;;;;;6.65;4.20;;;15.40;99.90;;;;;;4822077;29;20800;-51
2022/07/31 05:33:28;;;;;;;5.40;4.53;;;15.50;99.90;;;;;;4822404;29;20416;-54
2022/07/31 05:35:57;;;;;;;8.35;5.00;;;15.70;99.90;;;;;;4823554;29;20039;-51
2022/07/31 05:38:22;;;;;;;6.60;4.25;;;15.70;99.90;;;;;;4823956;29;20425;-53
2022/07/31 05:40:49;;;;;;;5.10;4.38;;;15.90;99.90;;;;;;4823555;29;20037;-51
2022/07/31 05:43:14;;;;;;;4.60;4.20;;;16.00;99.90;;;;;;4823714;29;20387;-50
2022/07/31 05:45:40;;;;;;;4.95;4.55;;;16.10;99.90;;;;;;4823585;29;20041;-52
2022/07/31 05:48:06;;;;;;;6.28;3.67;;;16.30;99.90;;;;;;4823567;29;20054;-49
2022/07/31 05:50:33;;;;;;;6.28;4.38;;;16.40;99.90;;;;;;4823649;29;20099;-51
2022/07/31 05:52:59;;;;;;;4.75;4.30;;;16.50;99.90;;;;;;4823552;29;20049;-53
2022/07/31 05:55:25;;;;;;;7.13;4.28;;;16.60;99.90;;;;;;4823654;29;20042;-50
2022/07/31 05:57:52;;;;;;;4.40;4.00;;;16.70;99.90;;;;;;4823336;29;20035;-50
2022/07/31 06:00:18;;;;;;;10.25;4.05;;;16.80;99.90;;;;;;4823008;29;20316;-52
2022/07/31 06:02:44;;;;;;;6.10;4.40;;;16.90;99.90;;;;;;4823057;29;20050;-54
2022/07/31 06:05:10;;;;;;;4.00;3.47;;;17.00;99.90;;;;;;4823493;29;20027;-50
2022/07/31 06:07:35;;;;;;;7.85;3.53;;;17.20;99.90;;;;;;4821589;29;20054;-50
2022/07/31 06:10:02;;;;;;;4.45;3.83;;;17.20;99.90;;;;;;4823386;29;20030;-50
2022/07/31 06:12:27;;;;;;;6.53;3.70;;;17.40;99.90;;;;;;4823111;29;20047;-52
2022/07/31 06:14:53;;;;;;;5.47;3.35;;;17.40;99.90;;;;;;4823012;29;20035;-51
2022/07/31 06:17:18;;;;;;;6.82;3.50;;;17.50;99.90;;;;;;4823023;29;20446;-49
2022/07/31 06:19:44;;;;;;;4.60;3.38;;;17.60;99.90;;;;;;4823021;29;20038;-49
2022/07/31 06:22:10;;;;;;;8.90;3.95;;;17.70;99.90;;;;;;4822972;29;20057;-50
2022/07/31 06:24:36;;;;;;;4.00;3.47;;;17.80;99.90;;;;;;4823423;29;20391;-49
2022/07/31 06:27:02;;;;;;;6.68;3.80;;;17.90;99.90;;;;;;4822838;29;20026;-50
2022/07/31 06:29:28;;;;;;;4.78;3.47;;;18.00;99.90;;;;;;4822997;29;20041;-52
2022/07/31 06:31:55;;;;;;;3.67;3.38;;;18.10;99.90;;;;;;4823056;29;20053;-51
2022/07/31 06:34:21;;;;;;;5.03;3.72;;;18.30;99.90;;;;;;4823246;29;20087;-50
2022/07/31 06:36:46;;;;;;;3.85;3.50;;;18.30;99.90;;;;;;4822859;29;20034;-51
2022/07/31 06:39:12;;;;;;;4.20;3.80;;;18.40;99.90;;;;;;4821885;29;20026;-50
2022/07/31 06:41:45;;;;;;;4.00;3.53;;;18.50;99.90;;;;;;4823222;29;20106;-51
2022/07/31 06:44:12;;;;;;;14.45;4.47;;;18.50;99.90;;;;;;4822857;29;20030;-52
2022/07/31 06:46:38;;;;;;;4.30;3.47;;;18.70;99.90;;;;;;4822859;29;20034;-50
2022/07/31 06:49:04;;;;;;;5.22;3.42;;;18.70;99.90;;;;;;4822888;29;20058;-50
2022/07/31 06:51:30;;;;;;;11.50;3.72;;;18.80;99.90;;;;;;4822745;29;20086;-52
2022/07/31 06:53:56;;;;;;;4.93;3.42;;;18.80;99.90;;;;;;4822315;29;20022;-52
2022/07/31 06:56:22;;;;;;;3.63;2.95;;;18.90;99.90;;;;;;4822538;29;20447;-53
2022/07/31 06:58:47;;;;;;;4.40;3.67;;;18.90;99.90;;;;;;4822216;29;20573;-51
2022/07/31 07:01:13;;;;;;;4.90;3.70;;;19.00;99.90;;;;;;4822869;29;20037;-50
2022/07/31 07:03:39;;;;;;;4.47;3.88;;;19.20;99.90;;;;;;4822591;29;20038;-50
2022/07/31 07:06:05;;;;;;;5.55;3.60;;;19.30;99.90;;;;;;4822610;29;20050;-52
2022/07/31 07:08:30;;;;;;;4.57;4.18;;;19.40;99.90;;;;;;4822668;29;20039;-49
2022/07/31 07:10:56;;;;;;;7.07;4.20;;;19.50;99.90;;;;;;4822610;29;20042;-51
2022/07/31 07:13:22;;;;;;;5.25;4.03;;;19.40;99.90;;;;;;4822364;29;20054;-52
2022/07/31 07:15:48;;;;;;;5.60;3.30;;;19.50;99.90;;;;;;4822268;29;20471;-54
2022/07/31 07:18:28;;;;;;;4.68;3.20;;;19.60;99.90;;;;;;4822526;29;20038;-53
2022/07/31 07:20:54;;;;;;;3.95;3.30;;;19.80;99.90;;;;;;4821966;29;20038;-51
2022/07/31 07:23:21;;;;;;;5.95;3.25;;;19.80;99.90;;;;;;4822303;29;20468;-54
2022/07/31 07:25:48;;;;;;;5.03;3.55;;;20.20;99.90;;;;;;4822387;29;20038;-54
2022/07/31 07:28:13;;;;;;;12.32;6.22;;;20.30;99.90;;;;;;4821826;29;20053;-52
2022/07/31 07:30:39;;;;;;;77.72;51.85;;;20.30;99.90;;;;;;4822517;29;20042;-53
2022/07/31 07:33:05;;;;;;;8.32;4.68;;;20.30;99.90;;;;;;4822009;29;20483;-51
2022/07/31 07:35:31;;;;;;;5.90;4.25;;;20.40;99.90;;;;;;4822410;29;20031;-54
2022/07/31 07:37:58;;;;;;;6.68;4.40;;;20.50;99.90;;;;;;4821995;29;20031;-51
2022/07/31 07:40:25;;;;;;;4.88;3.13;;;20.80;99.90;;;;;;4821102;29;20526;-54
2022/07/31 07:42:52;;;;;;;6.20;3.10;;;21.00;99.90;;;;;;4821981;29;20030;-51
2022/07/31 07:45:18;;;;;;;5.30;3.40;;;20.90;99.90;;;;;;4822197;29;20050;-51
2022/07/31 07:47:43;;;;;;;9.63;3.53;;;21.00;99.90;;;;;;4822141;29;20030;-52
2022/07/31 07:50:11;;;;;;;4.78;3.20;;;21.00;99.90;;;;;;4822016;29;20102;-53
2022/07/31 07:52:37;;;;;;;6.60;2.65;;;21.00;99.90;;;;;;4822136;29;20360;-55
2022/07/31 07:55:05;;;;;;;5.43;3.42;;;21.30;99.90;;;;;;4821971;29;20066;-55
2022/07/31 07:57:31;;;;;;;4.63;3.35;;;21.30;99.90;;;;;;4823827;29;20406;-52
2022/07/31 08:00:04;;;;;;;5.28;3.55;;;21.50;99.90;;;;;;4825452;29;20030;-52
2022/07/31 08:02:30;;;;;;;5.05;3.38;;;21.40;99.90;;;;;;4825344;29;20027;-52
2022/07/31 08:04:56;;;;;;;5.18;3.28;;;21.60;99.90;;;;;;4824189;29;20034;-51
2022/07/31 08:07:29;;;;;;;4.78;3.22;;;21.90;99.90;;;;;;4824869;29;20492;-53
2022/07/31 08:09:56;;;;;;;;;;;21.80;99.90;;;;;;4825514;29;20090;-54
2022/07/31 08:12:21;;;;;;;7.75;3.80;;;22.00;99.90;;;;;;4824837;29;19950;-52
2022/07/31 08:14:47;;;;;;;5.38;4.30;;;22.00;99.90;;;;;;4824911;29;20038;-52
2022/07/31 08:17:13;;;;;;;5.35;3.40;;;22.10;99.90;;;;;;4825119;29;20537;-55
2022/07/31 08:19:40;;;;;;;5.82;3.63;;;22.00;99.90;;;;;;4824765;29;20382;-53
2022/07/31 08:22:06;;;;;;;5.38;3.67;;;22.50;99.90;;;;;;4823657;29;20030;-52
2022/07/31 08:24:32;;;;;;;14.27;2.88;;;23.00;99.90;;;;;;4824550;29;20034;-51
2022/07/31 08:29:42;;;;;;;5.22;4.32;;;23.30;99.00;;;;;;4824805;29;20049;-56
2022/07/31 08:32:08;;;;;;;6.75;3.80;;;22.90;98.60;;;;;;4824893;29;20034;-53
2022/07/31 08:34:33;;;;;;;3.78;2.75;;;22.80;98.30;;;;;;4821219;29;20130;-50
2022/07/31 08:36:59;;;;;;;17.13;5.85;;;23.10;99.90;;;;;;4809040;29;20035;-54
2022/07/31 08:39:25;;;;;;;6.80;3.05;;;22.90;97.60;;;;;;4823446;29;20031;-52
2022/07/31 08:41:51;;;;;;;5.60;2.50;;;23.10;98.50;;;;;;4810512;29;20019;-50
2022/07/31 08:44:16;;;;;;;4.97;3.03;;;23.40;98.50;;;;;;4806433;29;20474;-51
2022/07/31 08:46:44;;;;;;;5.20;3.47;;;23.20;97.40;;;;;;4806577;29;20054;-52
2022/07/31 08:49:12;;;;;;;3.85;3.20;;;23.40;97.90;;;;;;4806512;29;20035;-51
2022/07/31 08:51:39;;;;;;;4.43;2.70;;;23.30;97.30;;;;;;4821756;29;20363;-51
2022/07/31 08:54:09;;;;;;;8.05;4.20;;;23.40;97.30;;;;;;4813054;29;20030;-51
2022/07/31 08:56:39;;;;;;;7.93;4.75;;;23.80;99.10;;;;;;4811438;29;20038;-51
2022/07/31 08:59:06;;;;;;;6.05;3.40;;;23.80;96.80;;;;;;4817189;29;20030;-52
2022/07/31 09:01:33;;;;;;;6.55;2.50;;;23.90;95.50;;;;;;4823296;29;20045;-51
2022/07/31 09:04:00;;;;;;;5.65;3.17;;;24.00;95.00;;;;;;4823355;29;20063;-51
2022/07/31 09:06:26;;;;;;;5.68;2.72;;;24.30;96.90;;;;;;4823471;29;20027;-51
2022/07/31 09:08:54;;;;;;;7.05;2.63;;;24.70;94.70;;;;;;4810883;29;20368;-52
2022/07/31 09:11:21;;;;;;;5.38;2.70;;;24.50;95.40;;;;;;4819321;29;20427;-52
2022/07/31 09:13:52;;;;;;;4.13;3.15;;;25.00;97.10;;;;;;4811864;29;20041;-52
2022/07/31 09:16:18;;;;;;;9.98;4.40;;;24.90;94.20;;;;;;4804715;29;20059;-52
2022/07/31 09:18:53;;;;;;;3.63;2.72;;;25.00;93.70;;;;;;4810168;29;20031;-51
2022/07/31 09:21:18;;;;;;;6.63;3.40;;;24.70;93.60;;;;;;4822954;29;20026;-55
2022/07/31 09:23:45;;;;;;;9.15;2.78;;;25.10;94.30;;;;;;4823093;29;20587;-53
2022/07/31 09:26:11;;;;;;;5.90;2.50;;;24.90;93.50;;;;;;4822821;29;20527;-51
2022/07/31 09:28:43;;;;;;;6.53;3.85;;;25.30;92.60;;;;;;4820811;29;20038;-51
2022/07/31 09:31:10;;;;;;;7.03;3.17;;;24.50;92.00;;;;;;4804464;29;20031;-54
2022/07/31 09:33:38;;;;;;;13.25;3.20;;;24.90;92.80;;;;;;4805038;29;20042;-54
2022/07/31 09:36:05;;;;;;;4.70;2.70;;;25.10;93.20;;;;;;4804194;29;20027;-50
2022/07/31 09:38:32;;;;;;;5.10;2.88;;;25.30;93.30;;;;;;4804821;29;20023;-52
2022/07/31 09:41:12;;;;;;;3.63;2.45;;;25.40;92.60;;;;;;4804224;29;20389;-53
2022/07/31 09:43:39;;;;;;;6.68;3.20;;;25.00;91.10;;;;;;4804980;29;20022;-54
2022/07/31 09:46:06;;;;;;;8.25;3.10;;;24.90;91.10;;;;;;4804035;29;20042;-51
2022/07/31 09:48:32;;;;;;;6.50;3.08;;;24.30;92.00;;;;;;4804691;29;20038;-51
2022/07/31 09:51:00;;;;;;;6.53;2.92;;;24.50;91.40;;;;;;4804221;29;20030;-53
2022/07/31 09:53:26;;;;;;;3.70;3.10;;;24.90;92.80;;;;;;4804525;29;20055;-54
2022/07/31 09:55:56;;;;;;;4.45;2.95;;;25.30;91.80;;;;;;4804336;29;20039;-52
2022/07/31 09:58:23;;;;;;;5.60;3.78;;;25.10;90.00;;;;;;4804321;29;20035;-51
2022/07/31 10:00:53;;;;;;;5.30;3.15;;;24.80;90.10;;;;;;4804158;29;20443;-51
2022/07/31 10:03:21;;;;;;;7.82;3.58;;;24.70;91.80;;;;;;4804219;29;20035;-52
2022/07/31 10:05:46;;;;;;;8.02;3.20;;;25.00;90.90;;;;;;4811008;29;20054;-53
2022/07/31 10:08:13;;;;;;;6.88;3.42;;;24.90;91.90;;;;;;4822109;29;20450;-52
2022/07/31 10:10:42;;;;;;;5.07;3.95;;;25.10;92.10;;;;;;4822074;29;20045;-52
2022/07/31 10:13:14;;;;;;;8.35;3.38;;;25.30;90.00;;;;;;4821803;29;20062;-56
2022/07/31 10:15:41;;;;;;;9.25;3.20;;;25.10;88.10;;;;;;4821882;29;20030;-53
2022/07/31 10:18:10;;;;;;;6.03;2.90;;;25.40;87.70;;;;;;4821937;29;20057;-52
2022/07/31 10:20:38;;;;;;;9.95;4.05;;;25.50;87.10;;;;;;4821992;29;20068;-55
2022/07/31 10:23:17;;;;;;;8.25;3.47;;;25.50;88.90;;;;;;4821831;29;20032;-54
2022/07/31 10:25:49;;;;;;;6.35;3.20;;;25.30;87.60;;;;;;4822317;29;20069;-54
2022/07/31 10:28:16;;;;;;;5.70;3.00;;;25.80;90.10;;;;;;4821511;29;20496;-52
2022/07/31 10:30:42;;;;;;;5.05;2.47;;;25.90;85.10;;;;;;4822073;29;20406;-53
2022/07/31 10:33:08;;;;;;;7.78;2.83;;;26.40;84.40;;;;;;4821374;29;20129;-52
2022/07/31 10:35:44;;;;;;;3.72;3.20;;;26.30;83.90;;;;;;4822008;29;20029;-53
2022/07/31 10:38:55;;;;;;;4.00;2.38;;;26.90;83.10;;;;;;4821631;29;20157;-55
2022/07/31 10:41:42;;;;;;;5.82;3.25;;;27.20;81.00;;;;;;4821481;29;20115;-55
2022/07/31 10:44:15;;;;;;;3.65;2.40;;;27.40;78.30;;;;;;4819804;29;20398;-54
2022/07/31 10:46:40;;;;;;;9.23;2.75;;;27.40;82.70;;;;;;4793233;29;20109;-55
2022/07/31 10:49:06;;;;;;;6.72;3.22;;;27.30;80.40;;;;;;4792633;29;20456;-53
2022/07/31 10:51:32;;;;;;;4.32;2.72;;;27.10;81.80;;;;;;4792412;29;20042;-57
2022/07/31 10:54:00;;;;;;;7.80;2.80;;;26.90;83.20;;;;;;4792018;29;20027;-57
2022/07/31 10:56:27;;;;;;;3.10;2.50;;;26.00;81.10;;;;;;4792575;29;20042;-53
2022/07/31 10:58:55;;;;;;;7.97;3.22;;;26.10;84.10;;;;;;4791937;29;20094;-55
2022/07/31 11:01:22;;;;;;;5.93;2.67;;;26.30;82.10;;;;;;4791713;29;20195;-52
2022/07/31 11:03:51;;;;;;;8.23;2.95;;;26.70;82.20;;;;;;4792009;29;20491;-54
2022/07/31 11:06:20;;;;;;;5.72;3.10;;;26.30;79.70;;;;;;4792270;29;20487;-54
2022/07/31 11:08:52;;;;;;;7.25;2.83;;;26.20;80.50;;;;;;4792339;29;20144;-57
2022/07/31 11:11:31;;;;;;;5.78;3.03;;;26.20;83.30;;;;;;4792039;29;20039;-56
2022/07/31 11:13:58;;;;;;;8.40;3.20;;;26.50;86.40;;;;;;4791935;29;20066;-55
2022/07/31 11:16:24;;;;;;;10.25;4.95;;;26.70;84.20;;;;;;4792428;29;20034;-55
2022/07/31 11:19:05;;;;;;;5.15;2.38;;;26.80;85.00;;;;;;4792035;29;20043;-55
2022/07/31 11:21:39;;;;;;;4.88;2.50;;;26.80;83.80;;;;;;4791578;29;20047;-54
2022/07/31 11:24:15;;;;;;;8.45;2.33;;;27.00;80.60;;;;;;4792220;29;20109;-55
2022/07/31 11:26:48;;;;;;;9.15;2.67;;;26.90;78.10;;;;;;4792431;29;20078;-56
2022/07/31 11:29:34;;;;;;;6.53;2.50;;;26.50;78.00;;;;;;4796713;29;20464;-55
2022/07/31 11:32:16;;;;;;;7.43;2.47;;;26.00;79.70;;;;;;4806362;29;20034;-55
2022/07/31 11:34:50;;;;;;;5.68;3.38;;;25.60;82.30;;;;;;4823650;29;20035;-51
2022/07/31 11:37:21;;;;;;;4.15;2.60;;;25.50;84.40;;;;;;4824857;29;20069;-54
2022/07/31 11:39:52;;;;;;;2.90;2.50;;;25.10;82.60;;;;;;4824489;29;20038;-54
2022/07/31 11:42:20;;;;;;;6.40;2.97;;;25.80;85.70;;;;;;4824851;29;20027;-54
2022/07/31 11:44:45;;;;;;;3.25;2.70;;;26.20;85.80;;;;;;4824548;29;20034;-51
2022/07/31 11:47:11;;;;;;;5.63;3.10;;;26.50;83.60;;;;;;4824421;29;20047;-57
2022/07/31 11:49:37;;;;;;;3.72;2.42;;;27.20;88.50;;;;;;4824787;29;20066;-55
2022/07/31 11:52:10;;;;;;;10.88;2.65;;;27.40;80.60;;;;;;4824409;29;20600;-54
2022/07/31 11:54:36;;;;;;;6.70;3.42;;;27.10;81.00;;;;;;4824789;29;20030;-53
2022/07/31 11:57:04;;;;;;;6.30;2.53;;;27.00;85.40;;;;;;4824330;29;20084;-55
2022/07/31 11:59:34;;;;;;;5.72;2.20;;;26.70;78.10;;;;;;4824423;29;20486;-52
2022/07/31 12:02:08;;;;;;;6.18;2.45;;;26.80;75.50;;;;;;4823993;29;20079;-55
2022/07/31 12:04:35;;;;;;;5.07;2.80;;;26.60;75.40;;;;;;4824304;29;20042;-54
2022/07/31 12:07:02;;;;;;;6.50;1.92;;;27.60;77.10;;;;;;4822832;29;20068;-53
2022/07/31 12:09:29;;;;;;;4.97;2.28;;;28.70;75.20;;;;;;4824354;29;20023;-53
2022/07/31 12:11:55;;;;;;;8.73;2.40;;;29.20;73.70;;;;;;4824008;29;20050;-53
2022/07/31 12:14:31;;;;;;;4.47;2.58;;;30.00;75.50;;;;;;4822895;29;20030;-52
2022/07/31 12:16:58;;;;;;;7.07;2.10;;;29.70;71.60;;;;;;4823800;29;20091;-53
2022/07/31 12:19:29;;;;;;;5.85;2.65;;;29.00;72.30;;;;;;4823888;29;20034;-55
2022/07/31 12:21:55;;;;;;;4.22;2.15;;;28.80;74.10;;;;;;4823814;29;20030;-56
2022/07/31 12:24:22;;;;;;;4.57;2.15;;;29.00;71.00;;;;;;4822806;29;20445;-52
2022/07/31 12:26:53;;;;;;;4.85;2.00;;;29.30;71.40;;;;;;4823881;29;20064;-56
2022/07/31 12:29:29;;;;;;;3.83;2.17;;;29.50;72.90;;;;;;4823985;29;20083;-56
2022/07/31 12:31:57;;;;;;;6.85;1.92;;;29.00;70.30;;;;;;4823435;29;20034;-56
2022/07/31 12:34:35;;;;;;;2.38;1.65;;;29.80;70.00;;;;;;4823999;29;20031;-53
2022/07/31 12:37:03;;;;;;;2.58;1.92;;;30.30;69.10;;;;;;4822390;29;20598;-55
2022/07/31 12:39:29;;;;;;;2.47;1.77;;;31.00;73.80;;;;;;4823725;29;20034;-51
2022/07/31 12:41:55;;;;;;;3.30;2.08;;;29.60;69.20;;;;;;4822757;29;20023;-54
2022/07/31 12:44:21;;;;;;;3.45;2.72;;;29.20;69.60;;;;;;4821326;29;20026;-54
2022/07/31 12:46:47;;;;;;;8.25;2.72;;;27.90;67.90;;;;;;4790427;29;20035;-52
2022/07/31 12:49:13;;;;;;;4.43;2.45;;;27.30;77.00;;;;;;4794673;29;20031;-55
2022/07/31 12:51:39;;;;;;;4.85;2.53;;;26.70;73.00;;;;;;4794656;29;20046;-52
2022/07/31 12:54:07;;;;;;;3.03;1.80;;;27.20;77.20;;;;;;4793796;29;20095;-56